createdAt,value
2023-03-20T00:01:24.427Z,67.80
2023-03-20T00:03:52.727Z,67.89
2023-03-20T00:06:25.528Z,68.12
2023-03-20T00:08:54.233Z,68.30
2023-03-20T00:11:26.740Z,68.25
2023-03-20T00:13:58.451Z,68.37
2023-03-20T00:16:28.277Z,68.57
2023-03-20T00:18:56.903Z,68.74
2023-03-20T00:21:31.073Z,68.79
2023-03-20T00:24:00.985Z,69.02
2023-03-20T00:26:46.878Z,69.13
2023-03-20T00:29:25.239Z,69.38
2023-03-20T00:31:54.229Z,69.35
2023-03-20T00:34:24.166Z,69.69
2023-03-20T00:36:52.439Z,69.91
2023-03-20T00:39:20.948Z,69.85
2023-03-20T00:41:50.827Z,69.81
2023-03-20T00:44:20.136Z,69.55
2023-03-20T00:46:55.123Z,69.54
2023-03-20T00:49:26.478Z,69.37
2023-03-20T00:52:01.624Z,69.87
2023-03-20T00:54:33.120Z,70.03
2023-03-20T00:57:02.465Z,70.07
2023-03-20T00:59:36.576Z,69.96
2023-03-20T01:02:04.920Z,69.50
2023-03-20T01:04:40.984Z,69.40
2023-03-20T01:07:13.202Z,69.33
2023-03-20T01:09:42.653Z,69.29
2023-03-20T01:12:11.240Z,69.27
2023-03-20T01:14:40.854Z,69.29
2023-03-20T01:17:17.598Z,69.44
2023-03-20T01:19:45.968Z,69.44
2023-03-20T01:22:14.720Z,69.38
2023-03-20T01:24:42.972Z,69.38
2023-03-20T01:27:18.171Z,69.43
2023-03-20T01:29:47.001Z,69.39
2023-03-20T01:32:16.255Z,69.32
2023-03-20T01:34:47.946Z,69.06
2023-03-20T01:37:23.996Z,68.89
2023-03-20T01:39:53.791Z,68.88
2023-03-20T01:42:22.166Z,69.02
2023-03-20T01:44:50.535Z,69.12
2023-03-20T01:47:20.062Z,69.05
2023-03-20T01:50:22.782Z,68.95
2023-03-20T01:53:04.442Z,68.82
2023-03-20T01:55:33.579Z,68.96
2023-03-20T01:58:07.972Z,68.81
2023-03-20T02:00:37.284Z,68.90
2023-03-20T02:03:08.731Z,68.96
2023-03-20T02:05:55.641Z,68.78
2023-03-20T02:08:31.556Z,68.84
2023-03-20T02:11:02.643Z,68.87
2023-03-20T02:13:32.490Z,68.92
2023-03-20T02:16:08.607Z,69.01
2023-03-20T02:18:52.742Z,68.95
2023-03-20T02:21:40.804Z,69.30
2023-03-20T02:24:15.740Z,69.36
2023-03-20T02:26:54.672Z,69.46
2023-03-20T02:29:35.973Z,69.77
2023-03-20T02:32:23.389Z,69.68
2023-03-20T02:34:55.449Z,69.88
2023-03-20T02:37:34.179Z,69.68
2023-03-20T02:40:09.208Z,69.58
2023-03-20T02:42:42.203Z,69.16
2023-03-20T02:45:13.566Z,69.09
2023-03-20T02:48:05.073Z,69.16
2023-03-20T02:50:38.887Z,69.12
2023-03-20T02:53:22.932Z,68.99
2023-03-20T02:55:57.396Z,69.13
2023-03-20T02:58:30.549Z,69.49
2023-03-20T03:00:59.951Z,69.64
2023-03-20T03:03:38.874Z,69.91
2023-03-20T03:06:10.337Z,69.96
2023-03-20T03:09:01.735Z,70.10
2023-03-20T03:11:51.028Z,70.42
2023-03-20T03:14:54.941Z,70.77
2023-03-20T03:17:53.639Z,70.68
2023-03-20T03:23:48.370Z,71.23
2023-03-20T03:26:21.965Z,71.37
2023-03-20T03:28:51.368Z,71.50
2023-03-20T03:31:20.307Z,71.80
2023-03-20T03:33:50.585Z,71.89
2023-03-20T03:36:30.952Z,71.75
2023-03-20T03:39:01.373Z,71.68
2023-03-20T03:41:38.156Z,71.87
2023-03-20T03:44:22.188Z,71.83
2023-03-20T03:47:00.899Z,71.74
2023-03-20T03:49:31.156Z,71.76
2023-03-20T03:52:00.967Z,71.69
2023-03-20T03:54:49.676Z,71.80
2023-03-20T03:57:43.027Z,71.75
2023-03-20T04:00:14.342Z,71.70
2023-03-20T04:02:45.896Z,71.73
2023-03-20T04:05:17.078Z,71.74
2023-03-20T04:07:47.675Z,71.87
2023-03-20T04:10:15.935Z,71.73
2023-03-20T04:12:55.608Z,71.68
2023-03-20T04:15:23.981Z,71.70
2023-03-20T04:17:52.158Z,71.71
2023-03-20T04:20:20.845Z,71.67
2023-03-20T04:22:49.419Z,71.54
2023-03-20T04:25:22.028Z,71.43
2023-03-20T04:27:52.448Z,71.64
2023-03-20T04:30:28.606Z,71.60
2023-03-20T04:33:29.144Z,71.58
2023-03-20T04:36:08.375Z,71.59
2023-03-20T04:38:36.759Z,71.50
2023-03-20T04:41:05.849Z,71.49
2023-03-20T04:43:35.773Z,71.18
2023-03-20T04:46:04.571Z,71.17
2023-03-20T04:48:33.071Z,71.25
2023-03-20T04:51:02.569Z,71.20
2023-03-20T04:53:42.108Z,71.21
2023-03-20T04:56:11.975Z,71.10
2023-03-20T04:58:41.116Z,71.20
2023-03-20T05:01:10.560Z,71.47
2023-03-20T05:03:39.570Z,71.69
2023-03-20T05:06:08.691Z,71.51
2023-03-20T05:08:38.078Z,71.67
2023-03-20T05:11:08.095Z,71.79
2023-03-20T05:14:15.634Z,71.78
2023-03-20T05:17:12.899Z,72.06
2023-03-20T05:20:07.953Z,72.00
2023-03-20T05:22:59.531Z,72.22
2023-03-20T05:25:46.643Z,72.32
2023-03-20T05:28:33.355Z,72.38
2023-03-20T05:31:12.252Z,72.52
2023-03-20T05:34:03.305Z,72.59
2023-03-20T05:36:48.782Z,72.63
2023-03-20T05:39:33.671Z,72.67
2023-03-20T05:42:19.952Z,72.76
2023-03-20T05:45:03.278Z,72.67
2023-03-20T05:47:56.643Z,72.78
2023-03-20T05:50:27.282Z,72.90
2023-03-20T05:53:13.079Z,72.95
2023-03-20T05:56:11.351Z,72.84
2023-03-20T05:58:42.601Z,72.71
2023-03-20T06:01:30.438Z,72.95
2023-03-20T06:04:18.304Z,72.82
2023-03-20T06:07:04.808Z,72.70
2023-03-20T06:09:34.532Z,72.75
2023-03-20T06:12:07.049Z,72.78
2023-03-20T06:14:35.395Z,72.58
2023-03-20T06:17:07.667Z,72.52
2023-03-20T06:19:37.376Z,72.44
2023-03-20T06:22:05.672Z,72.34
2023-03-20T06:24:36.249Z,72.14
2023-03-20T06:27:04.938Z,72.16
2023-03-20T06:29:34.185Z,72.01
2023-03-20T06:32:14.909Z,71.76
2023-03-20T06:34:43.391Z,71.69
2023-03-20T06:37:18.048Z,71.24
2023-03-20T06:39:47.315Z,71.15
2023-03-20T06:42:16.335Z,70.73
2023-03-20T06:44:44.998Z,70.56
2023-03-20T06:47:32.019Z,70.09
2023-03-20T06:50:01.649Z,69.68
2023-03-20T06:52:33.241Z,68.72
2023-03-20T06:55:22.766Z,67.81
2023-03-20T06:57:50.942Z,67.67
2023-03-20T07:00:21.835Z,67.17
2023-03-20T07:02:50.779Z,66.71
2023-03-20T07:05:21.049Z,66.47
2023-03-20T07:07:53.127Z,66.17
2023-03-20T07:10:21.454Z,65.59
2023-03-20T07:12:52.308Z,64.90
2023-03-20T07:15:39.170Z,64.28
2023-03-20T07:18:09.128Z,64.01
2023-03-20T07:20:42.527Z,63.78
2023-03-20T07:23:12.072Z,63.20
2023-03-20T07:25:43.044Z,62.48
2023-03-20T07:28:15.490Z,62.00
2023-03-20T07:30:46.917Z,61.72
2023-03-20T07:33:17.671Z,61.44
2023-03-20T07:35:46.562Z,60.80
2023-03-20T07:38:14.920Z,60.24
2023-03-20T07:40:50.747Z,59.44
2023-03-20T07:43:19.197Z,58.89
2023-03-20T07:46:26.804Z,58.43
2023-03-20T07:48:58.653Z,57.91
2023-03-20T07:51:26.748Z,57.49
2023-03-20T07:53:55.311Z,57.22
2023-03-20T07:56:23.597Z,56.57
2023-03-20T07:58:52.853Z,56.51
2023-03-20T08:01:21.350Z,56.32
2023-03-20T08:03:49.818Z,56.13
2023-03-20T08:06:29.370Z,55.70
2023-03-20T08:08:59.150Z,55.48
2023-03-20T08:11:28.383Z,55.06
2023-03-20T08:13:56.656Z,54.33
2023-03-20T08:16:25.567Z,54.25
2023-03-20T08:18:56.495Z,53.50
2023-03-20T08:21:24.568Z,53.00
2023-03-20T08:23:53.023Z,52.77
2023-03-20T08:26:22.080Z,52.71
2023-03-20T08:28:51.407Z,51.97
2023-03-20T08:31:20.413Z,51.26
2023-03-20T08:33:49.242Z,50.92
2023-03-20T08:36:19.858Z,50.40
2023-03-20T08:38:49.948Z,49.76
2023-03-20T08:41:19.064Z,49.17
2023-03-20T08:43:48.374Z,48.36
2023-03-20T08:46:16.667Z,47.94
2023-03-20T08:48:45.159Z,47.68
2023-03-20T08:51:14.668Z,47.39
2023-03-20T08:53:43.162Z,47.06
2023-03-20T08:56:12.336Z,46.83
2023-03-20T08:58:40.574Z,46.68
2023-03-20T09:01:09.432Z,46.60
2023-03-20T09:03:38.965Z,45.82
2023-03-20T09:06:07.937Z,44.85
2023-03-20T09:08:44.708Z,44.28
2023-03-20T09:11:13.102Z,43.26
2023-03-20T09:13:41.764Z,42.60
2023-03-20T09:16:09.966Z,42.07
2023-03-20T09:18:39.552Z,41.43
2023-03-20T09:21:08.244Z,41.03
2023-03-20T09:23:36.618Z,40.91
2023-03-20T09:26:06.084Z,40.86
2023-03-20T09:28:35.840Z,40.63
2023-03-20T09:31:04.354Z,40.07
2023-03-20T09:33:32.821Z,39.59
2023-03-20T09:36:01.529Z,39.63
2023-03-20T09:38:29.776Z,39.67
2023-03-20T09:40:59.385Z,39.31
2023-03-20T09:44:02.789Z,39.38
2023-03-20T09:46:38.365Z,39.33
2023-03-20T09:49:12.458Z,39.33
2023-03-20T09:51:45.643Z,39.55
2023-03-20T09:54:52.670Z,39.83
2023-03-20T09:57:21.934Z,39.95
2023-03-20T09:59:51.033Z,39.71
2023-03-20T10:02:24.697Z,39.82
2023-03-20T10:04:53.823Z,40.02
2023-03-20T10:07:22.122Z,39.84
2023-03-20T10:09:51.926Z,39.90
2023-03-20T10:12:21.042Z,40.15
2023-03-20T10:15:08.873Z,40.26
2023-03-20T10:17:41.080Z,40.29
2023-03-20T10:20:15.163Z,39.87
2023-03-20T10:22:50.994Z,39.82
2023-03-20T10:25:22.955Z,39.74
2023-03-20T10:27:57.404Z,39.51
2023-03-20T10:30:31.692Z,39.26
2023-03-20T10:33:11.243Z,39.54
2023-03-20T10:35:43.318Z,39.41
2023-03-20T10:38:20.730Z,39.35
2023-03-20T10:41:01.972Z,39.10
2023-03-20T10:43:50.459Z,38.88
2023-03-20T10:46:29.202Z,38.92
2023-03-20T10:48:59.101Z,38.52
2023-03-20T10:51:47.145Z,38.55
2023-03-20T10:54:27.188Z,38.56
2023-03-20T10:56:56.486Z,38.54
2023-03-20T10:59:24.736Z,38.58
2023-03-20T11:01:53.667Z,38.73
2023-03-20T11:04:22.499Z,38.84
2023-03-20T11:06:59.647Z,38.87
2023-03-20T11:09:30.081Z,38.82
2023-03-20T11:11:58.881Z,38.20
2023-03-20T11:14:35.755Z,38.22
2023-03-20T11:17:04.274Z,38.20
2023-03-20T11:19:33.875Z,37.82
2023-03-20T11:22:09.492Z,37.87
2023-03-20T11:24:41.332Z,37.64
2023-03-20T11:27:16.367Z,37.91
2023-03-20T11:29:49.189Z,38.00
2023-03-20T11:32:17.828Z,38.17
2023-03-20T11:34:46.200Z,38.04
2023-03-20T11:37:26.205Z,37.97
2023-03-20T11:40:01.538Z,37.67
2023-03-20T11:42:30.882Z,37.69
2023-03-20T11:45:00.387Z,37.83
2023-03-20T11:47:36.832Z,37.60
2023-03-20T11:50:07.376Z,37.64
2023-03-20T11:52:36.452Z,37.65
2023-03-20T11:55:07.494Z,37.62
2023-03-20T11:57:40.797Z,37.48
2023-03-20T12:00:20.647Z,37.24
2023-03-20T12:02:49.600Z,37.13
2023-03-20T12:05:34.205Z,37.09
2023-03-20T12:08:06.065Z,37.08
2023-03-20T12:10:39.681Z,37.06
2023-03-20T12:13:13.418Z,36.91
2023-03-20T12:15:49.894Z,36.58
2023-03-20T12:18:37.416Z,36.74
2023-03-20T12:21:21.221Z,36.95
2023-03-20T12:23:51.795Z,37.05
2023-03-20T12:26:57.300Z,36.59
2023-03-20T12:29:44.933Z,36.63
2023-03-20T12:32:17.114Z,36.71
2023-03-20T12:34:53.371Z,36.56
2023-03-20T12:37:21.962Z,36.58
2023-03-20T12:39:51.667Z,36.22
2023-03-20T12:42:22.713Z,36.24
2023-03-20T12:44:52.838Z,36.32
2023-03-20T12:47:40.985Z,36.27
2023-03-20T12:50:28.412Z,36.24
2023-03-20T12:53:09.800Z,36.12
2023-03-20T12:55:46.681Z,36.32
2023-03-20T12:58:24.182Z,36.39
2023-03-20T13:00:59.822Z,36.18
2023-03-20T13:03:33.832Z,36.34
2023-03-20T13:06:08.254Z,36.28
2023-03-20T13:09:09.878Z,36.07
2023-03-20T13:11:47.153Z,35.63
2023-03-20T13:14:28.130Z,35.67
2023-03-20T13:16:59.753Z,35.79
2023-03-20T13:19:37.593Z,35.67
2023-03-20T13:22:24.887Z,35.56
2023-03-20T13:25:03.080Z,35.62
2023-03-20T13:28:00.902Z,35.56
2023-03-20T13:30:44.904Z,35.59
2023-03-20T13:33:38.313Z,35.58
2023-03-20T13:36:11.453Z,35.41
2023-03-20T13:38:52.741Z,35.40
2023-03-20T13:41:27.773Z,35.26
2023-03-20T13:44:16.907Z,35.15
2023-03-20T13:47:07.926Z,35.06
2023-03-20T13:50:15.040Z,34.39
2023-03-20T13:53:19.994Z,34.70
2023-03-20T13:56:12.232Z,35.27
2023-03-20T13:58:53.334Z,35.75
2023-03-20T14:01:28.922Z,36.10
2023-03-20T14:04:36.559Z,36.48
2023-03-20T14:07:31.477Z,37.21
2023-03-20T14:10:39.175Z,37.64
2023-03-20T14:13:29.750Z,38.08
2023-03-20T14:16:32.876Z,38.55
2023-03-20T14:19:12.867Z,38.56
2023-03-20T14:21:53.677Z,38.70
2023-03-20T14:24:41.718Z,38.80
2023-03-20T14:27:36.790Z,38.75
2023-03-20T14:30:31.211Z,38.84
2023-03-20T14:33:16.901Z,39.20
2023-03-20T14:36:07.706Z,39.30
2023-03-20T14:39:02.732Z,39.49
2023-03-20T14:41:53.911Z,39.79
2023-03-20T14:44:46.096Z,39.99
2023-03-20T14:47:28.025Z,40.14
2023-03-20T14:50:08.568Z,40.13
2023-03-20T14:53:23.534Z,40.17
2023-03-20T14:56:27.008Z,39.89
2023-03-20T14:59:29.921Z,39.87
2023-03-20T15:02:45.506Z,40.31
2023-03-20T15:05:37.617Z,40.62
2023-03-20T15:08:40.363Z,40.76
2023-03-20T15:11:41.996Z,41.21
2023-03-20T15:14:34.951Z,41.26
2023-03-20T15:17:38.339Z,41.20
2023-03-20T15:20:34.248Z,41.32
2023-03-20T15:23:33.186Z,41.38
2023-03-20T15:27:01.989Z,41.14
2023-03-20T15:29:30.681Z,41.10
2023-03-20T15:32:13.268Z,41.59
2023-03-20T15:34:42.989Z,42.51
2023-03-20T15:37:15.780Z,43.11
2023-03-20T15:39:48.382Z,44.01
2023-03-20T15:42:17.668Z,44.77
2023-03-20T15:44:48.463Z,45.48
2023-03-20T15:47:21.028Z,46.17
2023-03-20T15:49:54.069Z,46.79
2023-03-20T15:52:32.494Z,47.28
2023-03-20T15:55:03.017Z,47.76
2023-03-20T15:57:35.349Z,48.29
2023-03-20T16:00:06.562Z,48.88
2023-03-20T16:02:35.644Z,49.05
2023-03-20T16:05:03.862Z,49.52
2023-03-20T16:07:33.405Z,49.98
2023-03-20T16:10:03.194Z,50.35
2023-03-20T16:12:34.301Z,50.58
2023-03-20T16:15:05.280Z,50.98
2023-03-20T16:17:33.519Z,51.18
2023-03-20T16:20:01.890Z,51.49
2023-03-20T16:22:31.293Z,51.88
2023-03-20T16:25:00.648Z,52.23
2023-03-20T16:27:29.805Z,52.35
2023-03-20T16:29:58.086Z,52.75
2023-03-20T16:32:35.695Z,53.01
2023-03-20T16:35:06.299Z,53.22
2023-03-20T16:37:38.680Z,53.39
2023-03-20T16:40:16.382Z,53.51
2023-03-20T16:42:44.750Z,53.74
2023-03-20T16:45:21.465Z,53.86
2023-03-20T16:47:49.604Z,54.22
2023-03-20T16:50:22.343Z,54.40
2023-03-20T16:52:52.005Z,54.47
2023-03-20T16:55:42.290Z,54.70
2023-03-20T16:58:11.399Z,54.80
2023-03-20T17:00:43.381Z,54.92
2023-03-20T17:03:12.149Z,55.10
2023-03-20T17:05:46.271Z,55.23
2023-03-20T17:08:15.161Z,55.26
2023-03-20T17:10:44.669Z,55.38
2023-03-20T17:13:12.941Z,55.51
2023-03-20T17:16:02.139Z,55.63
2023-03-20T17:18:31.312Z,55.83
2023-03-20T17:20:59.586Z,55.85
2023-03-20T17:23:27.867Z,55.94
2023-03-20T17:25:56.156Z,56.01
2023-03-20T17:28:25.171Z,56.24
2023-03-20T17:30:53.499Z,56.44
2023-03-20T17:33:23.746Z,56.51
2023-03-20T17:35:53.935Z,56.64
2023-03-20T17:38:22.794Z,56.77
2023-03-20T17:40:51.560Z,56.84
2023-03-20T17:43:19.844Z,56.92
2023-03-20T17:45:48.612Z,57.03
2023-03-20T17:48:18.720Z,57.15
2023-03-20T17:50:49.212Z,57.20
2023-03-20T17:53:21.453Z,57.16
2023-03-20T17:55:50.548Z,57.16
2023-03-20T17:58:20.682Z,57.12
2023-03-20T18:00:49.989Z,57.25
2023-03-20T18:03:18.567Z,57.34
2023-03-20T18:05:47.757Z,57.33
2023-03-20T18:08:17.138Z,57.41
2023-03-20T18:10:48.308Z,57.56
2023-03-20T18:13:21.064Z,57.56
2023-03-20T18:15:53.138Z,57.69
2023-03-20T18:18:23.885Z,57.80
2023-03-20T18:20:55.242Z,57.92
2023-03-20T18:23:25.780Z,57.97
2023-03-20T18:25:53.960Z,57.96
2023-03-20T18:28:24.790Z,58.01
2023-03-20T18:30:53.313Z,57.98
2023-03-20T18:33:28.109Z,57.90
2023-03-20T18:35:56.723Z,57.96
2023-03-20T18:38:25.911Z,58.05
2023-03-20T18:40:56.730Z,58.18
2023-03-20T18:43:26.346Z,58.16
2023-03-20T18:45:58.876Z,58.21
2023-03-20T18:48:46.966Z,58.21
2023-03-20T18:51:15.962Z,58.25
2023-03-20T18:53:45.162Z,58.36
2023-03-20T18:56:15.290Z,58.45
2023-03-20T18:58:50.426Z,58.43
2023-03-20T19:01:20.507Z,58.66
2023-03-20T19:03:49.164Z,58.82
2023-03-20T19:06:18.430Z,58.91
2023-03-20T19:08:47.071Z,59.07
2023-03-20T19:11:18.924Z,59.27
2023-03-20T19:13:51.499Z,59.48
2023-03-20T19:16:20.958Z,59.48
2023-03-20T19:18:52.736Z,59.54
2023-03-20T19:21:26.561Z,59.62
2023-03-20T19:23:59.031Z,59.71
2023-03-20T19:26:27.926Z,59.72
2023-03-20T19:28:56.474Z,59.73
2023-03-20T19:31:25.555Z,59.95
2023-03-20T19:33:54.738Z,60.08
2023-03-20T19:36:31.182Z,60.18
2023-03-20T19:39:00.402Z,60.35
2023-03-20T19:41:28.968Z,60.50
2023-03-20T19:43:57.215Z,60.63
2023-03-20T19:46:39.728Z,60.82
2023-03-20T19:49:19.202Z,60.98
2023-03-20T19:51:48.250Z,61.19
2023-03-20T19:54:16.562Z,61.30
2023-03-20T19:56:46.065Z,61.38
2023-03-20T19:59:17.031Z,61.59
2023-03-20T20:01:46.222Z,61.70
2023-03-20T20:04:16.195Z,61.86
2023-03-20T20:06:47.193Z,61.99
2023-03-20T20:09:16.589Z,62.07
2023-03-20T20:11:44.931Z,62.13
2023-03-20T20:14:14.892Z,62.41
2023-03-20T20:16:45.835Z,62.63
2023-03-20T20:19:21.765Z,62.98
2023-03-20T20:24:38.494Z,63.38
2023-03-20T20:27:17.549Z,63.57
2023-03-20T20:29:49.447Z,63.79
2023-03-20T20:32:23.613Z,63.92
2023-03-20T20:40:30.969Z,64.20
2023-03-20T20:43:01.781Z,64.20
2023-03-20T20:45:43.764Z,64.32
2023-03-20T20:48:12.875Z,64.32
2023-03-20T20:50:42.180Z,64.23
2023-03-20T20:53:11.175Z,64.26
2023-03-20T20:55:39.853Z,64.38
2023-03-20T20:58:10.536Z,64.29
2023-03-20T21:00:50.678Z,64.15
2023-03-20T21:03:21.593Z,64.30
2023-03-20T21:05:50.182Z,64.23
2023-03-20T21:08:19.216Z,64.11
2023-03-20T21:10:55.604Z,63.95
2023-03-20T21:13:24.109Z,63.94
2023-03-20T21:15:59.729Z,63.98
2023-03-20T21:18:29.185Z,64.06
2023-03-20T21:21:08.015Z,64.01
2023-03-20T21:23:36.394Z,64.12
2023-03-20T21:26:06.821Z,64.25
2023-03-20T21:28:36.968Z,64.41
2023-03-20T21:31:24.086Z,64.52
2023-03-20T21:33:54.494Z,64.71
2023-03-20T21:36:23.398Z,64.87
2023-03-20T21:39:09.048Z,64.95
2023-03-20T21:41:38.375Z,65.19
2023-03-20T21:44:07.600Z,65.26
2023-03-20T21:52:54.661Z,65.47
2023-03-20T21:55:48.247Z,65.55
2023-03-20T22:04:10.581Z,65.61
2023-03-20T22:12:52.837Z,65.80
2023-03-20T22:18:12.214Z,66.08
2023-03-20T22:46:16.916Z,66.59
2023-03-20T22:48:51.596Z,66.49
2023-03-20T22:51:22.670Z,66.70
2023-03-20T22:53:58.903Z,66.77
2023-03-20T22:56:27.184Z,66.75
2023-03-20T22:58:55.767Z,66.81
2023-03-20T23:01:23.969Z,66.76
2023-03-20T23:03:52.760Z,66.93
2023-03-20T23:06:21.936Z,66.82
2023-03-20T23:08:55.431Z,66.93
2023-03-20T23:11:25.882Z,67.04
2023-03-20T23:14:01.630Z,66.96
2023-03-20T23:16:31.566Z,66.92
2023-03-20T23:18:59.829Z,67.03
2023-03-20T23:21:47.971Z,66.97
2023-03-20T23:24:35.473Z,67.06
2023-03-20T23:27:10.015Z,67.06
2023-03-20T23:30:03.330Z,67.15
2023-03-20T23:32:54.135Z,67.16
2023-03-20T23:36:01.200Z,67.29
2023-03-20T23:39:10.827Z,67.29
2023-03-20T23:42:07.809Z,67.19
2023-03-20T23:44:56.518Z,67.13
2023-03-20T23:47:44.561Z,67.17
2023-03-20T23:50:26.350Z,67.09
2023-03-20T23:53:09.833Z,67.07
2023-03-20T23:55:46.194Z,67.06
2023-03-20T23:58:17.034Z,67.15
